Time,TemperatureF,DewpointF,PressureIn,WindDirection,WindDirectionDegrees,WindSpeedMPH,WindSpeedGustMPH,Humidity,HourlyPrecipIn,Conditions,Clouds,dailyrainin,SoftwareType,DateUTC
2013-04-22 00:02:00,35.6,26.0,30.42,ESE,103,0.0,-999.0,68,-99.99,,,0.00,weatherlink.com 1.10,2013-04-22 04:02:00,
2013-04-22 00:17:00,35.2,26.0,30.42,ESE,103,0.0,-999.0,69,-99.99,,,0.00,weatherlink.com 1.10,2013-04-22 04:17:00,
2013-04-22 00:32:00,34.6,26.0,30.42,ESE,103,0.0,-999.0,71,-99.99,,,0.00,weatherlink.com 1.10,2013-04-22 04:32:00,
2013-04-22 00:47:00,34.1,26.0,30.42,ESE,103,0.0,-999.0,72,-99.99,,,0.00,weatherlink.com 1.10,2013-04-22 04:47:00,
2013-04-22 01:02:00,33.8,26.0,30.41,ESE,103,0.0,-999.0,73,-99.99,,,0.00,weatherlink.com 1.10,2013-04-22 05:02:00,
2013-04-22 01:17:00,33.7,26.0,30.42,ESE,103,0.0,-999.0,72,-99.99,,,0.00,weatherlink.com 1.10,2013-04-22 05:17:00,
2013-04-22 01:32:00,33.7,26.0,30.41,ESE,104,0.0,-999.0,72,-99.99,,,0.00,weatherlink.com 1.10,2013-04-22 05:32:00,
2013-04-22 01:47:00,33.4,26.0,30.41,ESE,102,0.0,-999.0,73,-99.99,,,0.00,weatherlink.com 1.10,2013-04-22 05:47:00,
2013-04-22 02:02:00,32.9,25.0,30.40,ENE,66,0.0,-999.0,72,-99.99,,,0.00,weatherlink.com 1.10,2013-04-22 06:02:00,
2013-04-22 02:17:00,32.8,25.0,30.40,ENE,66,0.0,-999.0,74,-99.99,,,0.00,weatherlink.com 1.10,2013-04-22 06:17:00,
2013-04-22 02:32:00,32.8,25.0,30.39,ESE,113,0.0,-999.0,73,-99.99,,,0.00,weatherlink.com 1.10,2013-04-22 06:32:00,
2013-04-22 02:47:00,33.2,24.0,30.39,ESE,121,0.0,-999.0,69,-99.99,,,0.00,weatherlink.com 1.10,2013-04-22 06:47:00,
2013-04-22 03:02:00,34.9,23.0,30.38,SE,127,0.0,-999.0,61,-99.99,,,0.00,weatherlink.com 1.10,2013-04-22 07:02:00,
2013-04-22 03:17:00,34.7,24.0,30.38,SE,127,0.0,-999.0,64,-99.99,,,0.00,weatherlink.com 1.10,2013-04-22 07:17:00,
2013-04-22 03:32:00,33.7,24.0,30.38,SE,127,0.0,-999.0,67,-99.99,,,0.00,weatherlink.com 1.10,2013-04-22 07:32:00,
2013-04-22 03:47:00,33.4,23.0,30.38,East,97,0.0,-999.0,67,-99.99,,,0.00,weatherlink.com 1.10,2013-04-22 07:47:00,
2013-04-22 04:02:00,33.2,22.0,30.37,ESE,107,0.0,-999.0,64,-99.99,,,0.00,weatherlink.com 1.10,2013-04-22 08:02:00,
2013-04-22 04:17:00,34.1,22.0,30.37,East,80,0.0,-999.0,61,-99.99,,,0.00,weatherlink.com 1.10,2013-04-22 08:17:00,
2013-04-22 04:32:00,34.9,22.0,30.36,ESE,107,0.0,-999.0,59,-99.99,,,0.00,weatherlink.com 1.10,2013-04-22 08:32:00,
2013-04-22 04:47:00,35.3,22.0,30.36,East,97,3.0,-999.0,58,-99.99,,,0.00,weatherlink.com 1.10,2013-04-22 08:47:00,
2013-04-22 05:02:00,35.8,21.0,30.36,ENE,61,0.0,-999.0,56,-99.99,,,0.00,weatherlink.com 1.10,2013-04-22 09:02:00,
2013-04-22 05:17:00,35.6,22.0,30.36,East,99,0.0,-999.0,57,-99.99,,,0.00,weatherlink.com 1.10,2013-04-22 09:17:00,
2013-04-22 05:32:00,34.7,22.0,30.36,East,99,0.0,-999.0,61,-99.99,,,0.00,weatherlink.com 1.10,2013-04-22 09:32:00,
2013-04-22 05:47:00,34.0,22.0,30.36,NE,56,0.0,-999.0,63,-99.99,,,0.00,weatherlink.com 1.10,2013-04-22 09:47:00,
2013-04-22 06:02:00,34.0,22.0,30.37,East,99,0.0,-999.0,62,-99.99,,,0.00,weatherlink.com 1.10,2013-04-22 10:02:00,
2013-04-22 06:17:00,34.7,22.0,30.38,East,86,0.0,-999.0,60,-99.99,,,0.00,weatherlink.com 1.10,2013-04-22 10:17:00,
2013-04-22 06:32:00,35.2,22.0,30.37,ENE,61,1.0,-999.0,59,-99.99,,,0.00,weatherlink.com 1.10,2013-04-22 10:32:00,
2013-04-22 06:47:00,35.3,23.0,30.37,East,79,0.0,-999.0,60,-99.99,,,0.00,weatherlink.com 1.10,2013-04-22 10:47:00,
2013-04-22 07:02:00,35.6,22.0,30.38,ESE,104,0.0,-999.0,59,-99.99,,,0.00,weatherlink.com 1.10,2013-04-22 11:02:00,
2013-04-22 07:17:00,35.9,23.0,30.38,East,85,0.0,-999.0,59,-99.99,,,0.00,weatherlink.com 1.10,2013-04-22 11:17:00,
2013-04-22 07:32:00,36.3,23.0,30.38,ENE,71,0.0,-999.0,58,-99.99,,,0.00,weatherlink.com 1.10,2013-04-22 11:32:00,
2013-04-22 07:47:00,37.3,23.0,30.38,SE,126,1.0,-999.0,56,-99.99,,,0.00,weatherlink.com 1.10,2013-04-22 11:47:00,
2013-04-22 08:02:00,38.5,23.0,30.38,NNW,346,0.0,-999.0,55,-99.99,,,0.00,weatherlink.com 1.10,2013-04-22 12:02:00,
2013-04-22 08:17:00,39.6,24.0,30.38,NE,49,0.0,-999.0,54,-99.99,,,0.00,weatherlink.com 1.10,2013-04-22 12:17:00,
2013-04-22 08:32:00,40.8,24.0,30.37,SSE,150,0.0,-999.0,51,-99.99,,,0.00,weatherlink.com 1.10,2013-04-22 12:32:00,
2013-04-22 08:47:00,41.9,25.0,30.37,SSE,151,1.0,-999.0,51,-99.99,,,0.00,weatherlink.com 1.10,2013-04-22 12:47:00,
2013-04-22 09:02:00,43.3,26.0,30.37,NNW,333,0.0,-999.0,51,-99.99,,,0.00,weatherlink.com 1.10,2013-04-22 13:02:00,
2013-04-22 09:17:00,44.6,26.0,30.37,ESE,107,1.0,-999.0,49,-99.99,,,0.00,weatherlink.com 1.10,2013-04-22 13:17:00,
2013-04-22 09:32:00,45.8,26.0,30.37,SE,138,5.0,-999.0,46,-99.99,,,0.00,weatherlink.com 1.10,2013-04-22 13:32:00,
2013-04-22 09:47:00,46.5,26.0,30.36,ESE,113,14.0,-999.0,45,-99.99,,,0.00,weatherlink.com 1.10,2013-04-22 13:47:00,
2013-04-22 10:02:00,47.1,27.0,30.37,South,189,3.0,-999.0,45,-99.99,,,0.00,weatherlink.com 1.10,2013-04-22 14:02:00,
2013-04-22 10:17:00,48.5,26.0,30.36,SE,130,1.0,-999.0,42,-99.99,,,0.00,weatherlink.com 1.10,2013-04-22 14:17:00,
2013-04-22 10:32:00,49.5,27.0,30.36,ESE,120,0.0,-999.0,42,-99.99,,,0.00,weatherlink.com 1.10,2013-04-22 14:32:00,
2013-04-22 10:47:00,51.0,27.0,30.36,SE,140,0.0,-999.0,39,-99.99,,,0.00,weatherlink.com 1.10,2013-04-22 14:47:00,
2013-04-22 11:02:00,52.0,31.0,30.36,ESE,117,3.0,-999.0,44,-99.99,,,0.00,weatherlink.com 1.10,2013-04-22 15:02:00,
2013-04-22 11:17:00,52.8,28.0,30.35,South,185,11.0,-999.0,38,-99.99,,,0.00,weatherlink.com 1.10,2013-04-22 15:17:00,
2013-04-22 11:32:00,53.5,27.0,30.34,SE,133,11.0,-999.0,36,-99.99,,,0.00,weatherlink.com 1.10,2013-04-22 15:32:00,
2013-04-22 11:47:00,54.5,30.0,30.34,SSW,195,7.0,-999.0,40,-99.99,,,0.00,weatherlink.com 1.10,2013-04-22 15:47:00,
2013-04-22 12:02:00,54.1,27.0,30.33,South,181,1.0,-999.0,36,-99.99,,,0.00,weatherlink.com 1.10,2013-04-22 16:02:00,
2013-04-22 12:17:00,54.8,29.0,30.33,South,171,8.0,-999.0,37,-99.99,,,0.00,weatherlink.com 1.10,2013-04-22 16:17:00,
2013-04-22 12:32:00,55.7,28.0,30.32,East,88,0.0,-999.0,34,-99.99,,,0.00,weatherlink.com 1.10,2013-04-22 16:32:00,
2013-04-22 12:47:00,56.3,29.0,30.31,South,186,5.0,-999.0,35,-99.99,,,0.00,weatherlink.com 1.10,2013-04-22 16:47:00,
2013-04-22 13:02:00,56.6,30.0,30.31,SE,131,9.0,-999.0,37,-99.99,,,0.00,weatherlink.com 1.10,2013-04-22 17:02:00,
2013-04-22 13:17:00,57.3,32.0,30.30,ESE,113,5.0,-999.0,39,-99.99,,,0.00,weatherlink.com 1.10,2013-04-22 17:17:00,
2013-04-22 13:32:00,58.3,28.0,30.29,SW,232,5.0,-999.0,32,-99.99,,,0.00,weatherlink.com 1.10,2013-04-22 17:32:00,
2013-04-22 13:47:00,57.8,30.0,30.29,SSW,209,5.0,-999.0,35,-99.99,,,0.00,weatherlink.com 1.10,2013-04-22 17:47:00,
2013-04-22 14:02:00,58.0,31.0,30.28,South,188,6.0,-999.0,36,-99.99,,,0.00,weatherlink.com 1.10,2013-04-22 18:02:00,
2013-04-22 14:17:00,58.4,28.0,30.28,ESE,123,6.0,-999.0,31,-99.99,,,0.00,weatherlink.com 1.10,2013-04-22 18:17:00,
2013-04-22 14:32:00,58.7,27.0,30.27,SSE,158,4.0,-999.0,30,-99.99,,,0.00,weatherlink.com 1.10,2013-04-22 18:32:00,
2013-04-22 14:47:00,59.3,29.0,30.27,South,184,8.0,-999.0,32,-99.99,,,0.00,weatherlink.com 1.10,2013-04-22 18:47:00,
2013-04-22 15:02:00,59.3,28.0,30.26,South,171,1.0,-999.0,30,-99.99,,,0.00,weatherlink.com 1.10,2013-04-22 19:02:00,
2013-04-22 15:17:00,60.1,28.0,30.25,East,89,3.0,-999.0,30,-99.99,,,0.00,weatherlink.com 1.10,2013-04-22 19:17:00,
2013-04-22 15:32:00,60.4,29.0,30.25,East,88,0.0,-999.0,31,-99.99,,,0.00,weatherlink.com 1.10,2013-04-22 19:32:00,
2013-04-22 15:47:00,60.9,27.0,30.23,ESE,113,10.0,-999.0,28,-99.99,,,0.00,weatherlink.com 1.10,2013-04-22 19:47:00,
2013-04-22 16:02:00,61.3,28.0,30.23,East,96,0.0,-999.0,28,-99.99,,,0.00,weatherlink.com 1.10,2013-04-22 20:02:00,
2013-04-22 16:17:00,61.0,30.0,30.23,SE,126,3.0,-999.0,31,-99.99,,,0.00,weatherlink.com 1.10,2013-04-22 20:17:00,
2013-04-22 16:32:00,61.5,28.0,30.22,ENE,76,0.0,-999.0,28,-99.99,,,0.00,weatherlink.com 1.10,2013-04-22 20:32:00,
2013-04-22 16:47:00,61.8,27.0,30.21,SE,127,1.0,-999.0,27,-99.99,,,0.00,weatherlink.com 1.10,2013-04-22 20:47:00,
2013-04-22 17:02:00,62.4,29.0,30.21,SE,137,1.0,-999.0,28,-99.99,,,0.00,weatherlink.com 1.10,2013-04-22 21:02:00,
2013-04-22 17:17:00,62.0,30.0,30.20,ENE,78,0.0,-999.0,30,-99.99,,,0.00,weatherlink.com 1.10,2013-04-22 21:17:00,
2013-04-22 17:32:00,62.4,29.0,30.20,SSW,196,3.0,-999.0,28,-99.99,,,0.00,weatherlink.com 1.10,2013-04-22 21:32:00,
2013-04-22 17:47:00,61.3,27.0,30.19,SSE,150,1.0,-999.0,27,-99.99,,,0.00,weatherlink.com 1.10,2013-04-22 21:47:00,
2013-04-22 18:02:00,61.3,29.0,30.19,ENE,73,0.0,-999.0,29,-99.99,,,0.00,weatherlink.com 1.10,2013-04-22 22:02:00,
2013-04-22 18:17:00,60.7,26.0,30.19,East,89,2.0,-999.0,27,-99.99,,,0.00,weatherlink.com 1.10,2013-04-22 22:17:00,
2013-04-22 18:32:00,60.1,27.0,30.19,SSE,151,3.0,-999.0,28,-99.99,,,0.00,weatherlink.com 1.10,2013-04-22 22:32:00,
2013-04-22 18:47:00,59.3,26.0,30.20,SSE,147,5.0,-999.0,28,-99.99,,,0.00,weatherlink.com 1.10,2013-04-22 22:47:00,
2013-04-22 19:02:00,59.0,27.0,30.19,SE,143,2.0,-999.0,30,-99.99,,,0.00,weatherlink.com 1.10,2013-04-22 23:02:00,
2013-04-22 19:17:00,58.3,25.0,30.18,East,88,0.0,-999.0,28,-99.99,,,0.00,weatherlink.com 1.10,2013-04-22 23:17:00,
2013-04-22 19:32:00,57.8,25.0,30.19,SE,124,4.0,-999.0,28,-99.99,,,0.00,weatherlink.com 1.10,2013-04-22 23:32:00,
2013-04-22 19:47:00,57.0,26.0,30.19,SE,127,0.0,-999.0,30,-99.99,,,0.00,weatherlink.com 1.10,2013-04-22 23:47:00,
2013-04-22 20:02:00,56.2,25.0,30.18,ESE,117,1.0,-999.0,30,-99.99,,,0.00,weatherlink.com 1.10,2013-04-23 00:02:00,
2013-04-22 20:17:00,55.4,25.0,30.19,SE,140,0.0,-999.0,31,-99.99,,,0.00,weatherlink.com 1.10,2013-04-23 00:17:00,
2013-04-22 20:32:00,54.7,24.0,30.19,SE,133,0.0,-999.0,31,-99.99,,,0.00,weatherlink.com 1.10,2013-04-23 00:32:00,
2013-04-22 20:47:00,53.9,24.0,30.20,SE,143,0.0,-999.0,32,-99.99,,,0.00,weatherlink.com 1.10,2013-04-23 00:47:00,
2013-04-22 21:02:00,53.3,24.0,30.19,ESE,121,6.0,-999.0,32,-99.99,,,0.00,weatherlink.com 1.10,2013-04-23 01:02:00,
2013-04-22 21:17:00,53.2,23.0,30.19,East,95,0.0,-999.0,31,-99.99,,,0.00,weatherlink.com 1.10,2013-04-23 01:17:00,
2013-04-22 21:32:00,52.5,22.0,30.20,SE,136,0.0,-999.0,31,-99.99,,,0.00,weatherlink.com 1.10,2013-04-23 01:32:00,
2013-04-22 21:47:00,52.2,22.0,30.20,SE,136,2.0,-999.0,31,-99.99,,,0.00,weatherlink.com 1.10,2013-04-23 01:47:00,
2013-04-22 22:02:00,51.6,22.0,30.20,ESE,119,0.0,-999.0,31,-99.99,,,0.00,weatherlink.com 1.10,2013-04-23 02:02:00,
2013-04-22 22:17:00,51.3,21.0,30.20,South,181,5.0,-999.0,30,-99.99,,,0.00,weatherlink.com 1.10,2013-04-23 02:17:00,
2013-04-22 22:32:00,50.8,21.0,30.20,ESE,112,0.0,-999.0,31,-99.99,,,0.00,weatherlink.com 1.10,2013-04-23 02:32:00,
2013-04-22 22:47:00,50.2,21.0,30.20,ESE,102,7.0,-999.0,32,-99.99,,,0.00,weatherlink.com 1.10,2013-04-23 02:47:00,
2013-04-22 23:02:00,49.8,21.0,30.19,SE,136,2.0,-999.0,32,-99.99,,,0.00,weatherlink.com 1.10,2013-04-23 03:02:00,
2013-04-22 23:17:00,49.4,21.0,30.19,East,99,0.0,-999.0,33,-99.99,,,0.00,weatherlink.com 1.10,2013-04-23 03:17:00,
2013-04-22 23:32:00,48.9,22.0,30.19,ESE,112,5.0,-999.0,35,-99.99,,,0.00,weatherlink.com 1.10,2013-04-23 03:32:00,
2013-04-22 23:47:00,48.5,22.0,30.18,ESE,117,10.0,-999.0,36,-99.99,,,0.00,weatherlink.com 1.10,2013-04-23 03:47:00,